Time;durP1;ratioP1;P1;durP2;ratioP2;P2;SDS_P1;SDS_P2;PMS_P1;PMS_P2;Temp;Humidity;BMP_temperature;BMP_pressure;BME280_temperature;BME280_humidity;BME280_pressure;Samples;Min_cycle;Max_cycle;Signal;HPM_P1;HPM_P2
2021/07/08 00:00:08;;;;;;;2.78;2.58;;;19.00;90.10;;;;;;3533870;40;20099;-66
2021/07/08 00:02:34;;;;;;;2.92;2.72;;;19.00;90.10;;;;;;3532634;40;20033;-67
2021/07/08 00:05:00;;;;;;;4.10;3.03;;;19.00;90.00;;;;;;3534173;40;20030;-66
2021/07/08 00:07:26;;;;;;;4.88;2.67;;;19.00;90.20;;;;;;3532877;40;20038;-66
2021/07/08 00:09:51;;;;;;;2.90;2.70;;;19.00;90.10;;;;;;3531122;40;20034;-66
2021/07/08 00:12:18;;;;;;;4.20;3.00;;;19.00;90.40;;;;;;3533263;40;20027;-66
2021/07/08 00:14:44;;;;;;;6.97;3.20;;;19.00;90.40;;;;;;3534816;40;20069;-66
2021/07/08 00:17:09;;;;;;;5.82;3.03;;;19.00;90.50;;;;;;3534356;40;20026;-66
2021/07/08 00:19:35;;;;;;;4.60;3.00;;;19.10;90.30;;;;;;3533957;40;20035;-67
2021/07/08 00:22:02;;;;;;;3.03;2.63;;;19.10;90.00;;;;;;3534197;40;20075;-66
2021/07/08 00:24:28;;;;;;;2.63;2.42;;;19.10;90.00;;;;;;3533250;40;20078;-65
2021/07/08 00:26:54;;;;;;;3.35;2.58;;;19.10;90.50;;;;;;3535017;40;20029;-66
2021/07/08 00:29:19;;;;;;;3.85;2.70;;;19.20;90.20;;;;;;3532001;40;20079;-66
2021/07/08 00:31:45;;;;;;;2.97;2.67;;;19.20;89.00;;;;;;3533078;40;20030;-66
2021/07/08 00:34:11;;;;;;;3.10;2.80;;;19.20;88.40;;;;;;3534181;40;20105;-66
2021/07/08 00:36:36;;;;;;;3.53;3.10;;;19.10;88.30;;;;;;3532791;40;20054;-66
2021/07/08 00:39:03;;;;;;;3.50;3.20;;;19.10;88.80;;;;;;3534075;40;20684;-66
2021/07/08 00:41:29;;;;;;;3.92;3.53;;;19.10;89.40;;;;;;3531808;40;20074;-66
2021/07/08 00:43:54;;;;;;;4.85;3.22;;;19.10;89.60;;;;;;3534068;40;20035;-66
2021/07/08 00:46:21;;;;;;;4.30;3.30;;;19.10;89.80;;;;;;3533634;40;20452;-66
2021/07/08 00:48:47;;;;;;;3.53;3.22;;;19.10;89.50;;;;;;3536069;40;20022;-67
2021/07/08 00:51:13;;;;;;;4.43;3.17;;;19.10;89.10;;;;;;3533146;40;20046;-66
2021/07/08 00:53:39;;;;;;;3.42;3.22;;;19.20;88.70;;;;;;3534636;40;20047;-66
2021/07/08 00:56:05;;;;;;;3.33;3.03;;;19.20;89.20;;;;;;3534268;40;20246;-66
2021/07/08 00:58:31;;;;;;;2.50;2.30;;;19.20;89.40;;;;;;3534796;40;20042;-66
2021/07/08 01:00:57;;;;;;;4.38;3.00;;;19.20;89.40;;;;;;3533837;40;20034;-66
2021/07/08 01:03:24;;;;;;;5.03;3.00;;;19.30;88.90;;;;;;3532991;40;20026;-66
2021/07/08 01:05:53;;;;;;;5.18;2.80;;;19.30;87.90;;;;;;3531369;40;20306;-66
2021/07/08 01:08:19;;;;;;;2.97;2.53;;;19.30;87.70;;;;;;3535332;40;20719;-66
2021/07/08 01:10:47;;;;;;;6.93;2.70;;;19.20;88.80;;;;;;3534941;40;20034;-66
2021/07/08 01:13:14;;;;;;;4.40;2.55;;;19.20;88.40;;;;;;3534194;40;20030;-67
2021/07/08 01:15:40;;;;;;;2.55;2.22;;;19.20;87.90;;;;;;3533493;40;20045;-67
2021/07/08 01:18:06;;;;;;;4.55;2.55;;;19.20;87.90;;;;;;3534940;40;20023;-66
2021/07/08 01:20:33;;;;;;;4.07;2.38;;;19.10;88.00;;;;;;3534398;40;20031;-66
2021/07/08 01:22:59;;;;;;;3.60;2.63;;;19.20;87.90;;;;;;3532034;40;20031;-66
2021/07/08 01:25:43;;;;;;;3.65;2.40;;;19.10;87.60;;;;;;3533791;40;20063;-66
2021/07/08 01:28:10;;;;;;;2.65;2.45;;;19.10;88.00;;;;;;3530474;40;20057;-66
2021/07/08 01:30:36;;;;;;;5.82;2.67;;;19.00;87.70;;;;;;3533381;40;20861;-67
2021/07/08 01:33:03;;;;;;;2.50;2.30;;;18.90;87.80;;;;;;3535501;40;20866;-66
2021/07/08 01:35:29;;;;;;;4.95;2.70;;;18.90;88.30;;;;;;3535045;40;20039;-66
2021/07/08 01:37:55;;;;;;;2.80;2.60;;;18.80;88.40;;;;;;3537243;40;20057;-66
2021/07/08 01:40:21;;;;;;;3.97;2.65;;;18.80;88.40;;;;;;3522507;40;20791;-66
2021/07/08 01:42:47;;;;;;;3.80;2.85;;;18.70;89.50;;;;;;3533331;40;20424;-67
2021/07/08 01:45:15;;;;;;;4.78;2.90;;;18.60;89.20;;;;;;3534231;40;20035;-67
2021/07/08 01:47:42;;;;;;;5.78;2.78;;;18.60;89.60;;;;;;3533742;40;20038;-66
2021/07/08 01:50:13;;;;;;;3.78;2.80;;;18.60;89.90;;;;;;3533183;40;20133;-67
2021/07/08 01:52:39;;;;;;;3.33;3.03;;;18.60;90.00;;;;;;3532474;40;20380;-66
2021/07/08 01:55:05;;;;;;;5.78;3.03;;;18.60;90.20;;;;;;3533597;40;20422;-66
2021/07/08 01:57:30;;;;;;;4.18;3.10;;;18.60;90.50;;;;;;3532436;40;20046;-65
2021/07/08 01:59:56;;;;;;;3.70;2.72;;;18.60;90.40;;;;;;3533942;40;20027;-65
2021/07/08 02:02:22;;;;;;;4.60;3.47;;;18.60;90.50;;;;;;3533295;40;20031;-65
2021/07/08 02:04:47;;;;;;;4.40;3.30;;;18.60;90.40;;;;;;3531054;40;20116;-65
2021/07/08 02:07:13;;;;;;;3.55;3.25;;;18.60;90.10;;;;;;3534341;40;20035;-65
2021/07/08 02:09:39;;;;;;;5.03;3.20;;;18.70;90.00;;;;;;3532358;40;20026;-65
2021/07/08 02:12:05;;;;;;;3.65;3.33;;;18.60;90.00;;;;;;3532418;40;20053;-65
2021/07/08 02:14:31;;;;;;;3.67;3.03;;;18.60;90.30;;;;;;3532320;40;20041;-65
2021/07/08 02:16:56;;;;;;;3.63;3.25;;;18.70;90.60;;;;;;3532200;40;20435;-65
2021/07/08 02:19:23;;;;;;;2.95;2.65;;;18.80;90.40;;;;;;3530601;40;20051;-65
2021/07/08 02:21:49;;;;;;;2.92;2.50;;;18.80;90.20;;;;;;3530990;40;20055;-65
2021/07/08 02:24:15;;;;;;;2.88;2.67;;;18.90;89.70;;;;;;3529747;40;20396;-65
2021/07/08 02:26:41;;;;;;;3.00;2.80;;;19.00;88.50;;;;;;3522720;40;20772;-65
2021/07/08 02:29:08;;;;;;;4.70;2.80;;;19.10;88.60;;;;;;3533957;40;20240;-65
2021/07/08 02:31:34;;;;;;;3.40;2.53;;;19.10;87.70;;;;;;3532840;40;20030;-65
2021/07/08 02:34:00;;;;;;;3.65;2.85;;;19.10;87.50;;;;;;3530309;40;20038;-65
2021/07/08 02:36:26;;;;;;;7.25;3.15;;;19.00;87.50;;;;;;3529899;40;20041;-65
2021/07/08 02:38:52;;;;;;;7.00;2.70;;;19.00;87.90;;;;;;3531162;40;20023;-65
2021/07/08 02:41:17;;;;;;;5.07;2.83;;;18.90;88.40;;;;;;3517874;40;20756;-65
2021/07/08 02:43:43;;;;;;;5.00;3.00;;;18.90;88.00;;;;;;3531198;40;20041;-65
2021/07/08 02:46:09;;;;;;;4.30;3.17;;;18.80;87.80;;;;;;3533680;40;20369;-65
2021/07/08 02:48:35;;;;;;;3.97;2.70;;;18.80;88.10;;;;;;3529567;40;20027;-66
2021/07/08 02:51:01;;;;;;;5.55;3.15;;;18.80;88.50;;;;;;3532634;40;20210;-65
2021/07/08 02:53:27;;;;;;;3.80;2.97;;;18.80;88.10;;;;;;3532208;40;20039;-65
2021/07/08 02:55:52;;;;;;;6.63;2.92;;;18.70;87.90;;;;;;3530042;40;20039;-65
2021/07/08 02:58:19;;;;;;;3.55;3.25;;;18.70;89.20;;;;;;3530090;40;20103;-65
2021/07/08 03:00:47;;;;;;;3.35;2.95;;;18.70;89.10;;;;;;3530593;40;20114;-65
2021/07/08 03:03:14;;;;;;;5.50;3.47;;;18.60;88.80;;;;;;3532422;40;20034;-65
2021/07/08 03:05:39;;;;;;;4.03;3.20;;;18.60;89.00;;;;;;3532170;40;20507;-65
2021/07/08 03:08:05;;;;;;;3.47;3.17;;;18.50;89.30;;;;;;3530311;40;20128;-65
2021/07/08 03:10:32;;;;;;;4.20;3.80;;;18.50;90.00;;;;;;3530511;40;20033;-65
2021/07/08 03:12:58;;;;;;;3.85;3.42;;;18.60;89.60;;;;;;3530595;40;20149;-65
2021/07/08 03:15:24;;;;;;;3.30;3.10;;;18.50;89.70;;;;;;3531386;40;20042;-65
2021/07/08 03:17:51;;;;;;;4.70;3.67;;;18.50;90.20;;;;;;3530989;40;20039;-65
2021/07/08 03:20:20;;;;;;;5.32;3.45;;;18.50;90.00;;;;;;3530890;40;20025;-66
2021/07/08 03:22:47;;;;;;;3.88;3.25;;;18.50;90.40;;;;;;3530414;40;20747;-65
2021/07/08 03:25:14;;;;;;;4.50;3.10;;;18.50;90.20;;;;;;3530030;40;20026;-65
2021/07/08 03:27:41;;;;;;;3.50;3.20;;;18.60;90.20;;;;;;3530546;40;20034;-65
2021/07/08 03:30:10;;;;;;;3.15;2.92;;;18.70;90.10;;;;;;3529225;40;20057;-65
2021/07/08 03:32:36;;;;;;;5.28;3.03;;;18.80;89.90;;;;;;3531683;40;20035;-66
2021/07/08 03:35:03;;;;;;;3.53;3.10;;;19.00;88.20;;;;;;3530673;40;20548;-66
2021/07/08 03:37:29;;;;;;;8.30;3.35;;;18.90;87.80;;;;;;3530390;40;20042;-65
2021/07/08 03:39:55;;;;;;;7.35;3.05;;;19.00;88.10;;;;;;3527521;40;20078;-65
2021/07/08 03:42:20;;;;;;;5.13;3.78;;;18.90;89.00;;;;;;3531308;40;20049;-65
2021/07/08 03:44:46;;;;;;;5.40;3.70;;;18.90;88.40;;;;;;3530526;40;20050;-66
2021/07/08 03:47:12;;;;;;;3.47;3.17;;;19.00;89.00;;;;;;3531438;40;20043;-65
2021/07/08 03:49:37;;;;;;;3.78;3.33;;;19.00;88.70;;;;;;3530246;40;20086;-65
2021/07/08 03:52:04;;;;;;;8.60;3.67;;;19.00;88.50;;;;;;3533583;40;20046;-65
2021/07/08 03:54:29;;;;;;;3.97;3.58;;;19.10;88.00;;;;;;3531902;40;20853;-66
2021/07/08 03:56:55;;;;;;;2.97;2.78;;;19.20;87.80;;;;;;3532712;40;20042;-65
2021/07/08 03:59:20;;;;;;;4.22;3.45;;;19.20;87.90;;;;;;3533140;40;20411;-65
2021/07/08 04:01:46;;;;;;;4.70;3.25;;;19.20;88.30;;;;;;3531243;40;20422;-66
2021/07/08 04:04:12;;;;;;;6.45;3.53;;;19.30;88.10;;;;;;3532273;40;20476;-65
2021/07/08 04:06:38;;;;;;;3.72;3.17;;;19.40;87.40;;;;;;3532406;40;20393;-66
2021/07/08 04:09:03;;;;;;;3.55;3.25;;;19.50;86.80;;;;;;3536216;40;20726;-65
2021/07/08 04:11:29;;;;;;;3.83;3.30;;;19.50;87.00;;;;;;3533003;40;20028;-65
2021/07/08 04:13:55;;;;;;;6.78;3.70;;;19.60;86.40;;;;;;3530436;40;20131;-65
2021/07/08 04:16:20;;;;;;;5.25;3.67;;;19.60;86.20;;;;;;3533955;40;20810;-65
2021/07/08 04:18:46;;;;;;;3.70;3.33;;;19.70;86.80;;;;;;3530911;40;20551;-66
2021/07/08 04:21:12;;;;;;;6.28;3.10;;;19.70;86.00;;;;;;3529052;40;20031;-66
2021/07/08 04:23:38;;;;;;;3.65;2.97;;;19.70;86.30;;;;;;3531741;40;20413;-65
2021/07/08 04:26:03;;;;;;;3.35;3.05;;;19.80;85.70;;;;;;3533948;40;20132;-66
2021/07/08 04:28:29;;;;;;;7.10;3.42;;;19.70;86.30;;;;;;3531447;40;20081;-66
2021/07/08 04:30:56;;;;;;;9.02;2.88;;;19.80;86.20;;;;;;3531631;40;20053;-65
2021/07/08 04:33:21;;;;;;;4.78;3.13;;;19.80;86.80;;;;;;3532149;40;20051;-65
2021/07/08 04:35:47;;;;;;;2.85;2.65;;;19.80;86.80;;;;;;3528966;40;20766;-65
2021/07/08 04:38:14;;;;;;;5.75;3.30;;;19.90;86.50;;;;;;3530293;40;20692;-66
2021/07/08 04:40:41;;;;;;;3.67;2.90;;;20.00;85.60;;;;;;3529063;40;20030;-66
2021/07/08 04:43:09;;;;;;;3.88;2.80;;;20.00;86.10;;;;;;3534511;40;20083;-65
2021/07/08 04:45:35;;;;;;;3.28;2.42;;;20.10;86.20;;;;;;3531231;40;20080;-65
2021/07/08 04:48:01;;;;;;;4.03;2.67;;;20.10;86.20;;;;;;3532839;40;20165;-65
2021/07/08 04:50:27;;;;;;;4.20;2.58;;;20.30;85.80;;;;;;3529827;40;20027;-66
2021/07/08 04:52:54;;;;;;;2.80;2.60;;;20.40;85.70;;;;;;3533708;40;20075;-66
2021/07/08 04:55:22;;;;;;;3.13;2.80;;;20.60;84.80;;;;;;3532945;40;20049;-65
2021/07/08 04:57:49;;;;;;;4.47;2.60;;;20.70;84.10;;;;;;3532953;40;20046;-65
2021/07/08 05:00:18;;;;;;;4.80;2.70;;;20.80;84.10;;;;;;3532275;40;20089;-65
2021/07/08 05:02:44;;;;;;;4.00;2.70;;;20.80;83.50;;;;;;3530172;40;20348;-66
2021/07/08 05:05:11;;;;;;;3.40;2.45;;;20.90;83.90;;;;;;3533331;40;20124;-65
2021/07/08 05:07:38;;;;;;;3.80;2.47;;;21.00;83.90;;;;;;3533874;40;20034;-65
2021/07/08 05:10:06;;;;;;;4.30;2.95;;;21.10;83.70;;;;;;3533329;40;20131;-66
2021/07/08 05:12:32;;;;;;;7.00;2.20;;;21.20;83.70;;;;;;3535005;40;20039;-66
2021/07/08 05:14:58;;;;;;;2.65;2.20;;;21.20;83.60;;;;;;3530794;40;20064;-65
2021/07/08 05:17:24;;;;;;;2.58;2.38;;;21.30;83.80;;;;;;3531419;40;20024;-65
2021/07/08 05:19:50;;;;;;;5.85;2.85;;;21.40;83.60;;;;;;3529305;40;20027;-66
2021/07/08 05:22:20;;;;;;;2.50;2.30;;;21.50;83.00;;;;;;3533748;40;20701;-65
2021/07/08 05:24:45;;;;;;;3.38;2.42;;;21.50;83.40;;;;;;3531723;40;20112;-66
2021/07/08 05:27:15;;;;;;;2.90;2.70;;;21.60;83.20;;;;;;3533226;40;20050;-65
2021/07/08 05:29:43;;;;;;;3.15;2.60;;;21.60;82.80;;;;;;3530447;40;20508;-66
2021/07/08 05:32:09;;;;;;;3.03;2.70;;;21.70;83.10;;;;;;3530861;40;20040;-66
2021/07/08 05:34:34;;;;;;;2.80;2.45;;;21.80;83.00;;;;;;3535094;40;20030;-66
2021/07/08 05:37:00;;;;;;;5.53;2.75;;;21.80;81.00;;;;;;3533352;40;20038;-66
2021/07/08 05:39:26;;;;;;;3.28;2.20;;;21.90;81.80;;;;;;3532508;40;20037;-65
2021/07/08 05:41:51;;;;;;;3.33;2.90;;;22.00;81.50;;;;;;3531124;40;20317;-66
2021/07/08 05:44:17;;;;;;;5.35;2.67;;;22.10;81.60;;;;;;3531318;40;20027;-66
2021/07/08 05:46:43;;;;;;;5.97;3.08;;;22.10;82.30;;;;;;3533573;40;20030;-65
2021/07/08 05:49:08;;;;;;;4.47;2.75;;;22.10;81.90;;;;;;3531321;40;20720;-66
2021/07/08 05:51:34;;;;;;;6.05;3.13;;;22.10;80.80;;;;;;3534033;40;20499;-66
2021/07/08 05:54:00;;;;;;;4.05;2.95;;;22.10;81.10;;;;;;3531123;40;20127;-66
2021/07/08 05:56:27;;;;;;;4.25;2.78;;;21.90;79.70;;;;;;3532212;40;20066;-65
2021/07/08 05:58:53;;;;;;;4.03;2.90;;;22.00;80.40;;;;;;3534343;40;20305;-65
2021/07/08 06:01:21;;;;;;;4.25;2.70;;;22.00;80.20;;;;;;3534178;40;20069;-65
2021/07/08 06:03:47;;;;;;;6.70;2.70;;;22.00;79.90;;;;;;3532596;40;20019;-65
2021/07/08 06:06:13;;;;;;;2.60;2.40;;;22.00;80.40;;;;;;3533969;40;20086;-65
2021/07/08 06:08:39;;;;;;;3.17;2.78;;;22.00;79.90;;;;;;3532562;40;20520;-66
2021/07/08 06:11:05;;;;;;;4.25;3.00;;;22.00;79.50;;;;;;3532290;40;20058;-65
2021/07/08 06:13:30;;;;;;;3.45;2.70;;;22.00;79.20;;;;;;3532046;40;20148;-66
2021/07/08 06:15:56;;;;;;;4.03;2.75;;;21.90;79.30;;;;;;3530630;40;20571;-66
2021/07/08 06:18:21;;;;;;;5.05;2.90;;;21.90;79.30;;;;;;3532851;40;20046;-65
2021/07/08 06:20:49;;;;;;;3.33;2.35;;;21.90;79.30;;;;;;3532217;40;20058;-65
2021/07/08 06:23:15;;;;;;;4.07;3.10;;;21.80;79.80;;;;;;3533283;40;20094;-66
2021/07/08 06:25:41;;;;;;;4.60;2.92;;;21.80;80.00;;;;;;3530155;40;20058;-66
2021/07/08 06:28:07;;;;;;;6.00;3.08;;;21.90;79.60;;;;;;3535705;40;20026;-66
2021/07/08 06:30:33;;;;;;;4.55;2.65;;;21.90;80.10;;;;;;3527656;40;20029;-66
2021/07/08 06:32:59;;;;;;;3.30;3.05;;;21.80;79.30;;;;;;3533534;40;20047;-67
2021/07/08 06:35:24;;;;;;;5.75;3.38;;;21.80;80.60;;;;;;3532180;40;20167;-66
2021/07/08 06:37:50;;;;;;;3.30;2.70;;;21.70;79.50;;;;;;3530217;40;20473;-66
2021/07/08 06:40:17;;;;;;;3.03;2.80;;;21.50;80.40;;;;;;3532590;40;20095;-66
2021/07/08 06:42:44;;;;;;;5.43;2.50;;;21.50;81.00;;;;;;3530882;40;20045;-66
2021/07/08 06:45:13;;;;;;;4.32;3.22;;;21.50;80.80;;;;;;3532115;40;20042;-66
2021/07/08 06:47:45;;;;;;;5.20;3.55;;;21.50;81.20;;;;;;3530389;40;20034;-67
2021/07/08 06:50:12;;;;;;;4.78;4.32;;;21.50;80.90;;;;;;3531232;40;20045;-66
2021/07/08 06:52:38;;;;;;;5.35;4.50;;;21.50;80.40;;;;;;3530950;40;20135;-66
2021/07/08 06:55:05;;;;;;;9.05;4.70;;;21.50;81.80;;;;;;3529462;40;20043;-66
2021/07/08 06:57:32;;;;;;;7.97;4.80;;;21.50;80.80;;;;;;3531297;40;20034;-65
2021/07/08 06:59:57;;;;;;;7.90;4.40;;;21.50;80.80;;;;;;3531880;40;20043;-66
2021/07/08 07:02:23;;;;;;;6.13;4.35;;;21.50;81.10;;;;;;3532984;40;20520;-66
2021/07/08 07:04:49;;;;;;;6.15;4.45;;;21.50;80.80;;;;;;3531209;40;20035;-66
2021/07/08 07:07:15;;;;;;;5.15;4.65;;;21.60;82.10;;;;;;3533705;40;20079;-66
2021/07/08 07:09:42;;;;;;;8.73;4.38;;;21.70;81.50;;;;;;3533109;40;20747;-67
2021/07/08 07:12:08;;;;;;;6.65;4.13;;;21.80;80.00;;;;;;3532881;40;20073;-67
2021/07/08 07:14:34;;;;;;;6.38;3.97;;;21.90;79.70;;;;;;3532570;40;20679;-65
2021/07/08 07:17:00;;;;;;;6.40;5.15;;;22.00;79.00;;;;;;3532317;40;20066;-65
2021/07/08 07:19:27;;;;;;;8.02;4.05;;;21.90;79.60;;;;;;3532130;40;20530;-65
2021/07/08 07:21:54;;;;;;;11.95;4.93;;;22.00;79.90;;;;;;3530961;40;20371;-65
2021/07/08 07:24:20;;;;;;;4.45;4.05;;;22.10;79.70;;;;;;3532248;40;20034;-65
2021/07/08 07:26:47;;;;;;;5.82;4.07;;;22.10;79.20;;;;;;3532535;40;20064;-65
2021/07/08 07:29:12;;;;;;;5.05;3.95;;;22.20;79.50;;;;;;3532716;40;20047;-66
2021/07/08 07:31:38;;;;;;;5.60;4.00;;;22.20;77.70;;;;;;3531680;40;20703;-67
2021/07/08 07:34:04;;;;;;;6.22;3.92;;;22.30;78.30;;;;;;3532166;40;20030;-65
2021/07/08 07:36:29;;;;;;;6.90;3.70;;;22.40;78.80;;;;;;3531864;40;20147;-66
2021/07/08 07:38:55;;;;;;;5.60;3.83;;;22.50;78.30;;;;;;3529048;40;20428;-66
2021/07/08 07:41:21;;;;;;;3.53;3.22;;;22.70;77.70;;;;;;3534199;40;20038;-67
2021/07/08 07:43:48;;;;;;;4.07;3.75;;;22.80;75.80;;;;;;3530969;40;20043;-67
2021/07/08 07:46:14;;;;;;;11.57;5.78;;;22.90;76.00;;;;;;3534428;40;20123;-66
2021/07/08 07:48:40;;;;;;;8.65;4.72;;;22.90;77.30;;;;;;3534571;40;20038;-66
2021/07/08 07:51:06;;;;;;;4.80;3.95;;;22.90;75.30;;;;;;3533614;40;20039;-67
2021/07/08 07:53:32;;;;;;;8.02;6.10;;;22.80;74.90;;;;;;3533871;40;20030;-65
2021/07/08 07:55:58;;;;;;;6.50;4.15;;;22.60;76.30;;;;;;3532960;40;20042;-66
2021/07/08 07:58:27;;;;;;;8.65;4.47;;;22.70;77.20;;;;;;3532524;40;20027;-66
2021/07/08 08:00:55;;;;;;;4.60;3.20;;;22.80;76.50;;;;;;3531233;40;20018;-67
2021/07/08 08:03:21;;;;;;;6.60;5.00;;;22.90;75.00;;;;;;3531262;40;20031;-67
2021/07/08 08:05:57;;;;;;;6.47;4.30;;;23.00;75.70;;;;;;3530805;40;20172;-66
2021/07/08 08:08:30;;;;;;;6.88;5.40;;;23.20;74.40;;;;;;3531358;40;20045;-66
2021/07/08 08:10:57;;;;;;;6.70;4.60;;;23.40;74.70;;;;;;3531692;40;20030;-66
2021/07/08 08:13:24;;;;;;;5.45;3.35;;;23.50;75.10;;;;;;3530997;40;20046;-66
2021/07/08 08:15:51;;;;;;;5.28;3.28;;;23.50;74.80;;;;;;3525646;40;20034;-66
2021/07/08 08:18:18;;;;;;;5.93;2.90;;;23.50;74.30;;;;;;3530318;40;20081;-66
2021/07/08 08:20:44;;;;;;;4.25;2.63;;;23.50;72.50;;;;;;3530607;40;20090;-66
2021/07/08 08:23:10;;;;;;;4.82;3.15;;;23.30;73.10;;;;;;3533215;40;20067;-66
2021/07/08 08:25:36;;;;;;;5.97;4.60;;;23.20;73.50;;;;;;3530878;40;20530;-66
2021/07/08 08:28:02;;;;;;;6.50;4.35;;;23.10;74.50;;;;;;3531955;40;20037;-66
2021/07/08 08:30:28;;;;;;;2.40;2.05;;;23.10;74.30;;;;;;3532550;40;20042;-66
2021/07/08 08:32:54;;;;;;;6.30;2.65;;;23.10;71.90;;;;;;3532861;40;20094;-66
2021/07/08 08:35:20;;;;;;;3.83;2.78;;;22.90;72.00;;;;;;3531996;40;20034;-66
2021/07/08 08:37:46;;;;;;;3.70;2.53;;;22.80;73.60;;;;;;3529507;40;20043;-66
2021/07/08 08:40:14;;;;;;;2.30;2.10;;;22.80;72.70;;;;;;3533138;40;20138;-66
2021/07/08 08:42:45;;;;;;;4.63;3.40;;;22.80;73.40;;;;;;3533629;40;20039;-66
2021/07/08 08:45:14;;;;;;;4.82;2.38;;;22.70;74.40;;;;;;3532660;40;20099;-65
2021/07/08 08:47:54;;;;;;;2.92;1.95;;;22.60;73.70;;;;;;3533709;40;20045;-67
2021/07/08 08:50:20;;;;;;;4.22;2.70;;;22.60;74.60;;;;;;3535956;40;20057;-66
2021/07/08 08:52:47;;;;;;;4.45;2.47;;;22.50;75.20;;;;;;3534682;40;20199;-66
2021/07/08 08:55:13;;;;;;;2.15;1.95;;;22.50;75.70;;;;;;3533498;40;20128;-66
2021/07/08 08:57:40;;;;;;;2.10;1.90;;;22.40;76.70;;;;;;3533372;40;20079;-66
2021/07/08 09:00:24;;;;;;;2.40;2.20;;;22.50;77.10;;;;;;3535310;40;20663;-66
2021/07/08 09:03:05;;;;;;;2.63;2.35;;;22.50;76.60;;;;;;3530723;40;20043;-66
2021/07/08 09:05:31;;;;;;;2.20;2.00;;;22.50;76.40;;;;;;3532160;40;20058;-66
2021/07/08 09:08:20;;;;;;;3.90;2.40;;;22.50;76.40;;;;;;3533043;40;20127;-66
2021/07/08 09:10:49;;;;;;;4.15;2.95;;;22.50;76.90;;;;;;3533098;40;21042;-66
2021/07/08 09:13:16;;;;;;;3.80;2.95;;;22.50;77.50;;;;;;3533572;40;20739;-66
2021/07/08 09:15:42;;;;;;;4.05;2.92;;;22.50;77.80;;;;;;3534559;40;20061;-66
2021/07/08 09:18:08;;;;;;;2.63;2.40;;;22.50;77.70;;;;;;3534197;40;20142;-66
2021/07/08 09:20:36;;;;;;;4.80;3.75;;;22.60;78.30;;;;;;3530063;40;20137;-66
2021/07/08 09:23:17;;;;;;;4.13;2.78;;;22.60;77.40;;;;;;3531860;40;20400;-66
2021/07/08 09:25:44;;;;;;;4.30;3.00;;;22.50;77.50;;;;;;3533791;40;20038;-66
2021/07/08 09:28:21;;;;;;;6.28;2.92;;;22.50;77.20;;;;;;3533633;40;20063;-65
2021/07/08 09:31:04;;;;;;;3.97;2.20;;;22.50;75.70;;;;;;3529299;40;20160;-66
2021/07/08 09:33:35;;;;;;;3.72;2.20;;;22.30;76.10;;;;;;3533424;40;20033;-66
2021/07/08 09:36:15;;;;;;;3.10;2.60;;;22.30;75.50;;;;;;3525255;40;20042;-65
2021/07/08 09:38:43;;;;;;;2.92;2.05;;;22.30;76.40;;;;;;3535158;40;20039;-66
2021/07/08 09:41:19;;;;;;;2.72;1.80;;;22.30;75.30;;;;;;3530033;40;20049;-65
2021/07/08 09:43:46;;;;;;;5.35;2.85;;;22.30;75.70;;;;;;3531513;40;20125;-66
2021/07/08 09:46:13;;;;;;;3.10;2.80;;;22.30;76.40;;;;;;3529584;40;20030;-66
2021/07/08 09:48:40;;;;;;;5.18;3.72;;;22.20;75.90;;;;;;3535146;40;20698;-66
2021/07/08 09:51:06;;;;;;;3.17;2.22;;;22.30;77.90;;;;;;3531195;40;20085;-65
2021/07/08 09:53:51;;;;;;;1.92;1.73;;;22.40;76.70;;;;;;3530998;40;20045;-66
2021/07/08 09:58:54;;;;;;;2.88;2.00;;;22.50;74.50;;;;;;3534095;40;20107;-66
2021/07/08 10:01:21;;;;;;;3.70;1.80;;;22.40;75.80;;;;;;3534060;40;20035;-65
2021/07/08 10:03:50;;;;;;;5.75;1.88;;;22.50;76.60;;;;;;3534859;40;20027;-65
2021/07/08 10:06:18;;;;;;;2.17;1.98;;;22.40;76.40;;;;;;3532780;40;20035;-65
2021/07/08 10:08:44;;;;;;;2.30;1.95;;;22.40;74.20;;;;;;3533839;40;20038;-65
2021/07/08 10:11:19;;;;;;;2.92;2.20;;;22.30;76.30;;;;;;3531450;40;20914;-66
2021/07/08 10:13:45;;;;;;;2.15;1.98;;;22.30;76.40;;;;;;3532678;40;20396;-65
2021/07/08 10:16:13;;;;;;;1.60;1.50;;;22.20;78.20;;;;;;3531797;40;20050;-65
2021/07/08 10:18:42;;;;;;;2.45;2.00;;;22.20;79.40;;;;;;3531837;40;20748;-65
2021/07/08 10:21:09;;;;;;;2.92;2.08;;;22.20;81.00;;;;;;3533043;40;20400;-65
2021/07/08 10:23:37;;;;;;;2.50;2.30;;;22.20;81.40;;;;;;3531678;40;20083;-65
2021/07/08 10:26:05;;;;;;;2.92;2.05;;;22.20;81.90;;;;;;3534299;40;20319;-65
2021/07/08 10:28:34;;;;;;;2.50;2.30;;;22.20;82.50;;;;;;3533108;40;20027;-66
2021/07/08 10:31:00;;;;;;;2.40;2.20;;;22.20;82.90;;;;;;3532804;40;20046;-65
2021/07/08 10:33:26;;;;;;;2.33;2.13;;;22.20;82.70;;;;;;3530704;40;20031;-65
2021/07/08 10:35:53;;;;;;;2.40;2.20;;;22.20;82.50;;;;;;3527893;40;20446;-65
2021/07/08 10:38:29;;;;;;;2.63;2.40;;;22.20;83.10;;;;;;3534755;40;20018;-65
2021/07/08 10:40:55;;;;;;;;;;;22.20;82.80;;;;;;3531107;40;20046;-65
2021/07/08 10:43:47;;;;;;;3.95;2.20;;;22.30;82.40;;;;;;3531892;40;19941;-65
2021/07/08 10:46:15;;;;;;;2.40;2.20;;;22.30;82.80;;;;;;3530715;40;20035;-65
2021/07/08 10:48:48;;;;;;;2.45;2.25;;;22.40;83.90;;;;;;3531942;40;20072;-65
2021/07/08 10:51:39;;;;;;;3.65;2.30;;;22.40;83.30;;;;;;3532950;40;20190;-66
2021/07/08 10:54:25;;;;;;;3.47;2.20;;;22.40;83.30;;;;;;3530831;40;20420;-66
2021/07/08 10:56:51;;;;;;;2.80;2.60;;;22.50;83.00;;;;;;3529817;40;20030;-66
2021/07/08 10:59:17;;;;;;;6.75;2.40;;;22.50;78.20;;;;;;3531341;40;20042;-65
2021/07/08 11:01:54;;;;;;;3.08;2.50;;;22.40;78.80;;;;;;3532934;40;20023;-65
2021/07/08 11:04:48;;;;;;;4.30;2.58;;;22.40;82.20;;;;;;3532261;40;20547;-65
2021/07/08 11:07:21;;;;;;;2.72;2.53;;;22.30;83.40;;;;;;3528149;40;20034;-65
2021/07/08 11:10:04;;;;;;;3.42;2.80;;;22.20;82.40;;;;;;3529011;40;20035;-65
2021/07/08 11:12:34;;;;;;;5.32;2.42;;;22.20;82.80;;;;;;3531359;40;20035;-66
2021/07/08 11:15:00;;;;;;;3.05;2.63;;;22.20;83.10;;;;;;3531948;40;20141;-66
2021/07/08 11:17:26;;;;;;;3.13;2.83;;;22.20;84.30;;;;;;3530653;40;20764;-65
2021/07/08 11:19:54;;;;;;;6.13;3.00;;;22.30;84.40;;;;;;3530611;40;20193;-66
2021/07/08 11:22:27;;;;;;;2.78;2.55;;;22.30;81.20;;;;;;3532549;40;20026;-66
2021/07/08 11:24:54;;;;;;;3.50;2.50;;;22.40;82.30;;;;;;3532233;40;20083;-66
2021/07/08 11:27:22;;;;;;;3.03;2.70;;;22.40;83.70;;;;;;3531497;40;20035;-66
2021/07/08 11:29:58;;;;;;;3.00;2.80;;;22.40;84.90;;;;;;3531507;40;20114;-66
2021/07/08 11:38:18;;;;;;;3.40;2.97;;;22.50;81.80;;;;;;3531454;40;20058;-66
2021/07/08 11:40:49;;;;;;;3.25;2.95;;;22.40;82.40;;;;;;3532155;40;20053;-65
2021/07/08 11:43:32;;;;;;;4.78;3.15;;;22.40;82.40;;;;;;3532361;40;20635;-65
2021/07/08 11:46:13;;;;;;;4.88;2.80;;;22.30;82.30;;;;;;3531418;40;20453;-66
2021/07/08 11:48:43;;;;;;;4.25;3.00;;;22.20;82.30;;;;;;3530747;40;20031;-65
2021/07/08 11:51:20;;;;;;;6.00;2.92;;;22.10;83.30;;;;;;3529194;40;20077;-65
2021/07/08 11:53:48;;;;;;;5.95;3.30;;;22.00;84.60;;;;;;3528736;40;20030;-65
2021/07/08 11:56:21;;;;;;;4.20;2.70;;;22.00;85.70;;;;;;3533153;40;20030;-66
2021/07/08 11:58:47;;;;;;;2.92;2.72;;;22.00;86.80;;;;;;3532282;40;20042;-65
2021/07/08 12:01:19;;;;;;;3.28;2.97;;;22.00;87.10;;;;;;3529794;40;20051;-65
2021/07/08 12:03:47;;;;;;;3.50;3.20;;;22.00;87.20;;;;;;3533770;40;20091;-66
2021/07/08 12:06:22;;;;;;;3.63;2.75;;;22.10;87.00;;;;;;3531932;40;20051;-65
2021/07/08 12:08:52;;;;;;;4.32;3.17;;;22.10;87.10;;;;;;3533627;40;20761;-66
2021/07/08 12:11:40;;;;;;;8.45;3.08;;;22.20;87.40;;;;;;3531400;40;20056;-65
2021/07/08 12:14:11;;;;;;;4.78;2.97;;;22.20;87.00;;;;;;3533932;40;20135;-66
2021/07/08 12:16:39;;;;;;;3.53;3.17;;;22.20;86.50;;;;;;3536161;40;20198;-66
2021/07/08 12:19:06;;;;;;;3.65;3.35;;;22.30;86.20;;;;;;3532023;40;20634;-66
2021/07/08 12:21:33;;;;;;;4.95;3.47;;;22.30;86.50;;;;;;3533474;40;20011;-66
2021/07/08 12:24:18;;;;;;;4.85;3.22;;;22.30;87.00;;;;;;3532393;40;20479;-65
2021/07/08 12:26:45;;;;;;;5.00;3.47;;;22.40;87.40;;;;;;3530688;40;20139;-65
2021/07/08 12:29:13;;;;;;;4.30;3.30;;;22.40;87.30;;;;;;3533894;40;20030;-66
2021/07/08 12:31:42;;;;;;;4.82;3.35;;;22.30;86.20;;;;;;3532354;40;20037;-65
2021/07/08 12:34:08;;;;;;;5.72;3.22;;;22.40;85.30;;;;;;3535185;40;20297;-65
2021/07/08 12:36:33;;;;;;;3.90;3.55;;;22.30;85.70;;;;;;3532495;40;20157;-66
2021/07/08 12:38:59;;;;;;;4.70;3.22;;;22.30;85.90;;;;;;3533138;40;20105;-66
2021/07/08 12:41:25;;;;;;;3.67;3.03;;;22.20;87.00;;;;;;3532562;40;20111;-66
2021/07/08 12:43:50;;;;;;;5.00;3.10;;;22.20;87.00;;;;;;3534453;40;20031;-65
2021/07/08 12:46:16;;;;;;;3.85;3.13;;;22.20;86.40;;;;;;3532589;40;20109;-66
2021/07/08 12:48:42;;;;;;;3.55;3.25;;;22.10;86.00;;;;;;3532814;40;20027;-66
2021/07/08 12:51:09;;;;;;;5.55;3.60;;;22.10;84.70;;;;;;3531792;40;20030;-66
2021/07/08 12:53:36;;;;;;;3.40;2.85;;;22.00;84.90;;;;;;3535135;40;20671;-66
2021/07/08 12:56:11;;;;;;;3.78;3.30;;;21.90;83.80;;;;;;3534052;40;20123;-66
2021/07/08 12:58:37;;;;;;;3.90;3.10;;;21.80;84.70;;;;;;3533782;40;20047;-66